createdAt,value
2018-11-01T00:00:17.298Z,2.8
2018-11-01T00:05:17.494Z,2.8
2018-11-01T00:10:17.662Z,1.6
2018-11-01T00:15:17.499Z,2.4
2018-11-01T00:20:17.781Z,3.1
2018-11-01T00:25:16.838Z,3
2018-11-01T00:30:16.877Z,1.6
2018-11-01T00:35:16.781Z,1.3
2018-11-01T00:40:17.055Z,1.9
2018-11-01T00:45:17.113Z,1.2
2018-11-01T00:50:17.202Z,0.9
2018-11-01T00:55:17.199Z,2
2018-11-01T01:00:17.242Z,1.5
2018-11-01T01:05:17.315Z,5.3
2018-11-01T01:10:22.678Z,1.4
2018-11-01T01:15:17.464Z,2.7
2018-11-01T01:20:17.678Z,2.4
2018-11-01T01:25:17.559Z,1.5
2018-11-01T01:30:17.724Z,0.6
2018-11-01T01:35:16.727Z,1.2
2018-11-01T01:40:17.002Z,2.1
2018-11-01T01:45:16.876Z,0.9
2018-11-01T01:50:17.086Z,2.6
2018-11-01T01:55:17.274Z,6.3
2018-11-01T02:00:17.394Z,5.1
2018-11-01T02:05:17.291Z,1.7
2018-11-01T02:10:17.390Z,1.9
2018-11-01T02:15:17.306Z,3.5
2018-11-01T02:20:17.542Z,1.1
2018-11-01T02:25:17.528Z,1.4
2018-11-01T02:30:17.670Z,2.8
2018-11-01T02:35:17.653Z,10.9
2018-11-01T02:40:17.064Z,3.2
2018-11-01T02:45:17.110Z,2.9
2018-11-01T02:50:17.107Z,1
2018-11-01T02:55:17.159Z,3
2018-11-01T03:00:17.356Z,1.2
2018-11-01T03:05:17.286Z,1.2
2018-11-01T03:10:17.399Z,3.3
2018-11-01T03:15:17.309Z,0.8
2018-11-01T03:20:17.477Z,2.5
2018-11-01T03:25:17.298Z,1.8
2018-11-01T03:30:17.104Z,4.2
2018-11-01T03:35:17.109Z,2.2
2018-11-01T03:40:17.434Z,1.1
2018-11-01T03:45:17.252Z,2.7
2018-11-01T03:50:17.153Z,6
2018-11-01T03:55:17.137Z,1.8
2018-11-01T04:00:17.287Z,3.4
2018-11-01T04:05:17.142Z,1.7
2018-11-01T04:10:17.286Z,3.2
2018-11-01T04:15:17.234Z,3
2018-11-01T04:20:17.751Z,2.1
2018-11-01T04:25:16.750Z,1.2
2018-11-01T04:30:16.566Z,2.5
2018-11-01T04:35:17.939Z,1.4
2018-11-01T04:40:17.291Z,3.2
2018-11-01T04:45:17.210Z,1.4
2018-11-01T04:50:17.226Z,0.9
2018-11-01T04:55:17.178Z,2.4
2018-11-01T05:00:17.070Z,1.7
2018-11-01T05:05:16.961Z,9.5
2018-11-01T05:10:17.346Z,2.7
2018-11-01T05:15:17.558Z,1.4
2018-11-01T05:20:16.830Z,2.7
2018-11-01T05:25:16.742Z,3.1
2018-11-01T05:30:16.554Z,4.8
2018-11-01T05:35:17.594Z,3.9
2018-11-01T05:40:16.654Z,4.3
2018-11-01T05:45:17.709Z,2.2
2018-11-01T05:50:17.493Z,4
2018-11-01T05:55:17.286Z,4.5
2018-11-01T06:00:17.104Z,3.4
2018-11-01T06:05:16.980Z,5.5
2018-11-01T06:10:17.096Z,4.1
2018-11-01T06:15:17.250Z,4.3
2018-11-01T06:20:17.286Z,4
2018-11-01T06:25:17.486Z,5
2018-11-01T06:30:17.553Z,3.7
2018-11-01T06:35:17.714Z,3.2
2018-11-01T06:40:16.998Z,2.4
2018-11-01T06:45:16.921Z,4.9
2018-11-01T06:50:17.022Z,5.1
2018-11-01T06:55:17.299Z,2.5
2018-11-01T07:00:17.454Z,7.2
2018-11-01T07:05:17.375Z,6.3
2018-11-01T07:10:17.454Z,6.4
2018-11-01T07:15:17.774Z,5.5
2018-11-01T07:20:16.958Z,4.8
2018-11-01T07:25:16.819Z,5.2
2018-11-01T07:30:16.762Z,4.1
2018-11-01T07:35:16.629Z,4
2018-11-01T07:40:16.879Z,5.9
2018-11-01T07:45:16.962Z,4.2
2018-11-01T07:50:17.129Z,5.5
2018-11-01T07:55:16.937Z,4.4
2018-11-01T08:00:16.743Z,4.7
2018-11-01T08:05:16.911Z,4.8
2018-11-01T08:10:17.179Z,1.9
2018-11-01T08:15:17.134Z,4.3
2018-11-01T08:20:17.607Z,4.6
2018-11-01T08:25:17.258Z,7.1
2018-11-01T08:30:17.351Z,6.4
2018-11-01T08:35:17.415Z,4
2018-11-01T08:40:17.692Z,5.5
2018-11-01T08:45:17.738Z,5.6
2018-11-01T08:50:17.843Z,5
2018-11-01T08:55:17.037Z,5.5
2018-11-01T09:00:17.210Z,4.8
2018-11-01T09:05:17.513Z,6
2018-11-01T09:10:16.642Z,5.9
2018-11-01T09:15:17.733Z,5
2018-11-01T09:20:16.814Z,7.9
2018-11-01T09:25:16.709Z,5.6
2018-11-01T09:30:17.799Z,3.3
2018-11-01T09:35:16.778Z,7.1
2018-11-01T09:40:17.050Z,6.3
2018-11-01T09:45:17.017Z,3.7
2018-11-01T09:50:17.266Z,6.2
2018-11-01T09:55:17.422Z,2.2
2018-11-01T10:00:17.510Z,7.2
2018-11-01T10:05:17.583Z,6.5
2018-11-01T10:10:16.607Z,8.8
2018-11-01T10:15:17.744Z,9.1
2018-11-01T10:20:17.246Z,8.2
2018-11-01T10:25:17.380Z,9.3
2018-11-01T10:30:17.584Z,5.1
2018-11-01T10:35:17.616Z,8.7
2018-11-01T10:40:16.926Z,7.4
2018-11-01T10:45:16.863Z,7.6
2018-11-01T10:50:16.798Z,9.7
2018-11-01T10:55:16.862Z,7.5
2018-11-01T11:00:17.135Z,6.6
2018-11-01T11:05:17.561Z,6
2018-11-01T11:10:16.843Z,9.1
2018-11-01T11:15:16.743Z,8.8
2018-11-01T11:20:17.256Z,8.4
2018-11-01T11:25:17.862Z,8.5
2018-11-01T11:30:16.947Z,7.3
2018-11-01T11:35:17.406Z,19.7
2018-11-01T11:40:18.002Z,8.6
2018-11-01T11:45:17.233Z,6
2018-11-01T11:50:17.091Z,6.6
2018-11-01T11:55:17.090Z,6.9
2018-11-01T12:00:17.294Z,8.5
2018-11-01T12:05:17.427Z,13.7
2018-11-01T12:10:17.775Z,7
2018-11-01T12:15:16.808Z,4.7
2018-11-01T12:20:17.174Z,8.9
2018-11-01T12:25:17.129Z,6.9
2018-11-01T12:30:16.979Z,7.7
2018-11-01T12:35:16.933Z,7.2
2018-11-01T12:40:17.095Z,7.4
2018-11-01T12:45:17.008Z,9
2018-11-01T12:50:17.421Z,6.9
2018-11-01T12:55:17.595Z,6.8
2018-11-01T13:00:17.598Z,7.8
2018-11-01T13:05:17.569Z,2.8
2018-11-01T13:10:16.845Z,6.7
2018-11-01T13:15:16.765Z,8.6
2018-11-01T13:20:17.042Z,6.9
2018-11-01T13:25:16.986Z,6.4
2018-11-01T13:30:17.286Z,6.9
2018-11-01T13:35:17.370Z,8.9
2018-11-01T13:40:17.137Z,8.4
2018-11-01T13:45:17.142Z,8.2
2018-11-01T13:50:17.198Z,3
2018-11-01T13:55:17.294Z,8.6
2018-11-01T14:00:17.169Z,9.4
2018-11-01T14:05:17.077Z,6.3
2018-11-01T14:10:17.159Z,8.1
2018-11-01T14:15:17.590Z,4.7
2018-11-01T14:20:16.700Z,8.6
2018-11-01T14:25:17.844Z,7.2
2018-11-01T14:30:17.029Z,7.4
2018-11-01T14:35:17.077Z,4.8
2018-11-01T14:40:17.190Z,6.6
2018-11-01T14:45:17.057Z,7
2018-11-01T14:50:17.247Z,3.8
2018-11-01T14:55:18.472Z,8.4
2018-11-01T15:00:16.910Z,4
2018-11-01T15:05:16.753Z,9.5
2018-11-01T15:10:16.914Z,6.8
2018-11-01T15:15:16.958Z,4.9
2018-11-01T15:20:17.098Z,7
2018-11-01T15:25:17.514Z,8.3
2018-11-01T15:30:17.528Z,6.5
2018-11-01T15:35:16.790Z,8.4
2018-11-01T15:40:16.983Z,8.6
2018-11-01T15:45:17.215Z,10.2
2018-11-01T15:50:17.320Z,8
2018-11-01T15:55:17.226Z,9.4
2018-11-01T16:00:17.430Z,8.5
2018-11-01T16:05:17.533Z,8
2018-11-01T16:10:16.843Z,10
2018-11-01T16:15:17.209Z,10.8
2018-11-01T16:20:16.920Z,8.2
2018-11-01T16:25:17.414Z,8.8
2018-11-01T16:30:17.620Z,11.5
2018-11-01T16:35:17.462Z,9.8
2018-11-01T16:40:17.778Z,9.3
2018-11-01T16:45:16.902Z,6.4
2018-11-01T16:50:17.213Z,9.6
2018-11-01T16:55:17.390Z,10.2
2018-11-01T17:00:17.832Z,9.9
2018-11-01T17:05:17.151Z,5.2
2018-11-01T17:10:17.453Z,10.4
2018-11-01T17:15:17.822Z,6.1
2018-11-01T17:20:17.526Z,10.3
2018-11-01T17:25:17.587Z,6
2018-11-01T17:30:17.510Z,10.9
2018-11-01T17:35:17.423Z,18.5
2018-11-01T17:40:17.679Z,9
2018-11-01T17:45:17.704Z,7.5
2018-11-01T17:50:16.877Z,9.2
2018-11-01T17:55:16.898Z,8
2018-11-01T18:00:16.730Z,9.9
2018-11-01T18:05:17.482Z,8.7
2018-11-01T18:10:17.859Z,11.1
2018-11-01T18:15:16.697Z,16
2018-11-01T18:20:17.002Z,10.6
2018-11-01T18:25:17.178Z,10.3
2018-11-01T18:30:17.297Z,12.9
2018-11-01T18:35:17.343Z,10.5
2018-11-01T18:40:17.520Z,11.3
2018-11-01T18:45:17.507Z,14.3
2018-11-01T18:50:17.885Z,11.5
2018-11-01T18:55:16.826Z,13.5
2018-11-01T19:00:16.920Z,14.6
2018-11-01T19:05:17.078Z,14
2018-11-01T19:10:17.431Z,25.5
2018-11-01T19:15:17.561Z,13.1
2018-11-01T19:20:17.020Z,9.6
2018-11-01T19:25:17.063Z,13.5
2018-11-01T19:30:16.978Z,15.9
2018-11-01T19:35:17.042Z,13.5
2018-11-01T19:40:17.488Z,12.3
2018-11-01T19:45:17.686Z,15.9
2018-11-01T19:50:17.690Z,12.9
2018-11-01T19:55:16.967Z,14.8
2018-11-01T20:00:17.601Z,12.1
2018-11-01T20:05:17.606Z,11.3
2018-11-01T20:10:17.321Z,14.3
2018-11-01T20:15:17.386Z,11.8
2018-11-01T20:20:17.470Z,9.1
2018-11-01T20:25:17.694Z,11.6
2018-11-01T20:30:17.650Z,13.1
2018-11-01T20:35:17.814Z,11.9
2018-11-01T20:40:17.039Z,11.5
2018-11-01T20:45:16.958Z,13.1
2018-11-01T20:50:17.211Z,12.4
2018-11-01T20:55:17.627Z,11.3
2018-11-01T21:00:17.712Z,6.6
2018-11-01T21:05:17.790Z,10.7
2018-11-01T21:10:17.083Z,11.4
2018-11-01T21:15:17.388Z,12.2
2018-11-01T21:20:17.497Z,12.9
2018-11-01T21:25:17.389Z,11.2
2018-11-01T21:30:17.732Z,10.7
2018-11-01T21:35:16.960Z,10
2018-11-01T21:40:17.434Z,11.3
2018-11-01T21:45:17.459Z,10
2018-11-01T21:50:17.385Z,12.9
2018-11-01T21:55:17.303Z,10.2
2018-11-01T22:00:17.254Z,9.6
2018-11-01T22:05:17.418Z,9.3
2018-11-01T22:10:17.726Z,13.3
2018-11-01T22:15:17.830Z,9
2018-11-01T22:20:17.004Z,10.6
2018-11-01T22:25:17.658Z,11
2018-11-01T22:30:17.571Z,10.1
2018-11-01T22:35:16.938Z,11.3
2018-11-01T22:40:17.420Z,10.6
2018-11-01T22:45:17.425Z,11.7
2018-11-01T22:50:17.290Z,11.7
2018-11-01T22:55:17.497Z,11
2018-11-01T23:00:17.716Z,11.1
2018-11-01T23:05:17.634Z,13
2018-11-01T23:10:16.838Z,13.9
2018-11-01T23:15:16.778Z,11.9
2018-11-01T23:20:16.989Z,14.5
2018-11-01T23:25:17.086Z,12.6
2018-11-01T23:30:17.326Z,13.1
2018-11-01T23:35:17.281Z,14.8
2018-11-01T23:40:17.605Z,15.6
2018-11-01T23:45:17.774Z,15.4
2018-11-01T23:50:16.862Z,15.7
2018-11-01T23:55:16.814Z,15.4
